Time;durP1;ratioP1;P1;durP2;ratioP2;P2;SDS_P1;SDS_P2;PMS_P1;PMS_P2;Temp;Humidity;BMP_temperature;BMP_pressure;BME280_temperature;BME280_humidity;BME280_pressure;Samples;Min_cycle;Max_cycle;Signal;HPM_P1;HPM_P2
2021/06/14 00:01:20;;;;;;;14.25;5.00;;;;;;;-145.50;100.00;65435.88;4908344;29;20110;-41
2021/06/14 00:03:46;;;;;;;11.43;4.75;;;;;;;-145.50;100.00;65435.88;4902616;29;20051;-41
2021/06/14 00:06:13;;;;;;;12.15;5.55;;;;;;;-145.50;100.00;65435.88;4924345;29;20063;-42
2021/06/14 00:08:43;;;;;;;15.05;6.10;;;;;;;-145.50;100.00;65435.88;4915841;29;20140;-42
2021/06/14 00:11:10;;;;;;;13.40;5.47;;;;;;;-145.50;100.00;65435.88;4918914;29;20126;-41
2021/06/14 00:13:38;;;;;;;14.00;5.50;;;;;;;-145.50;100.00;65435.88;4908861;29;20150;-42
2021/06/14 00:16:05;;;;;;;12.30;5.60;;;;;;;-145.50;100.00;65435.88;4923311;29;20190;-42
2021/06/14 00:18:33;;;;;;;9.63;5.40;;;;;;;-145.50;100.00;65435.88;4916292;29;20139;-41
2021/06/14 00:21:04;;;;;;;12.68;5.95;;;;;;;-145.50;100.00;65435.88;4923724;29;20134;-43
2021/06/14 00:23:31;;;;;;;10.40;5.07;;;;;;;-145.50;100.00;65435.88;4917748;29;20142;-42
2021/06/14 00:26:01;;;;;;;11.77;5.68;;;;;;;-145.50;100.00;65435.88;4905451;29;20091;-41
2021/06/14 00:28:27;;;;;;;11.50;5.97;;;;;;;-145.50;100.00;65435.88;4920415;29;20139;-45
2021/06/14 00:30:54;;;;;;;16.70;6.10;;;;;;;-145.50;100.00;65435.88;4908640;29;20139;-41
2021/06/14 00:33:22;;;;;;;15.35;6.00;;;;;;;-145.50;100.00;65435.88;4915711;29;20062;-44
2021/06/14 00:35:48;;;;;;;12.82;6.15;;;;;;;-145.50;100.00;65435.88;4906341;29;20155;-42
2021/06/14 00:38:16;;;;;;;12.73;6.20;;;;;;;-145.50;100.00;65435.88;4920707;29;20143;-41
2021/06/14 00:40:43;;;;;;;13.63;6.13;;;;;;;-145.50;100.00;65435.88;4915431;29;20201;-41
2021/06/14 00:43:11;;;;;;;12.13;5.80;;;;;;;-145.50;100.00;65435.88;4922835;29;20877;-46
2021/06/14 00:45:42;;;;;;;14.82;6.85;;;;;;;-145.50;100.00;65435.88;4921108;29;20069;-43
2021/06/14 00:48:09;;;;;;;14.32;7.82;;;;;;;-145.50;100.00;65435.88;4910922;29;20056;-40
2021/06/14 00:50:41;;;;;;;16.38;7.15;;;;;;;-145.50;100.00;65435.88;4920195;29;20161;-42
2021/06/14 00:53:15;;;;;;;12.35;5.75;;;;;;;-145.50;100.00;65435.88;4914559;29;20091;-43
2021/06/14 00:55:43;;;;;;;12.75;6.53;;;;;;;-145.50;100.00;65435.88;4921284;29;20098;-42
2021/06/14 00:58:10;;;;;;;11.75;6.05;;;;;;;-145.50;100.00;65435.88;4919350;29;20158;-42
2021/06/14 01:00:37;;;;;;;19.63;6.70;;;;;;;-145.50;100.00;65435.88;4925867;29;20460;-41
2021/06/14 01:03:04;;;;;;;12.13;5.38;;;;;;;-145.50;100.00;65435.88;4918373;29;20476;-41
2021/06/14 01:05:43;;;;;;;13.05;5.82;;;;;;;-145.50;100.00;65435.88;4917625;29;20544;-41
2021/06/14 01:08:11;;;;;;;13.57;5.88;;;;;;;-145.50;100.00;65435.88;4921312;29;20130;-41
2021/06/14 01:10:38;;;;;;;16.30;6.32;;;;;;;-145.50;100.00;65435.88;4919460;29;20131;-42
2021/06/14 01:13:41;;;;;;;13.43;6.17;;;;;;;-145.50;100.00;65435.88;4921131;29;20087;-41
2021/06/14 01:16:31;;;;;;;17.27;6.00;;;;;;;-145.50;100.00;65435.88;4914758;29;20163;-41
2021/06/14 01:19:07;;;;;;;16.38;6.72;;;;;;;-145.50;100.00;65435.88;4912998;29;20047;-45
2021/06/14 01:21:39;;;;;;;15.73;7.15;;;;;;;-145.50;100.00;65435.88;4913571;29;20142;-41
2021/06/14 01:24:35;;;;;;;14.93;6.20;;;;;;;-145.50;100.00;65435.88;4924405;29;20134;-41
2021/06/14 01:27:05;;;;;;;15.00;6.22;;;;;;;-145.50;100.00;65435.88;4900662;29;20857;-43
2021/06/14 01:29:33;;;;;;;17.60;6.55;;;;;;;-145.50;100.00;65435.88;4924505;29;20056;-41
2021/06/14 01:32:01;;;;;;;13.80;6.90;;;;;;;-145.50;100.00;65435.88;4913737;29;20147;-42
2021/06/14 01:34:31;;;;;;;16.75;6.80;;;;;;;-145.50;100.00;65435.88;4918297;29;20147;-40
2021/06/14 01:37:00;;;;;;;16.95;6.57;;;;;;;-145.50;100.00;65435.88;4918835;29;20142;-42
2021/06/14 01:39:29;;;;;;;15.10;7.13;;;;;;;-145.50;100.00;65435.88;4920629;29;20154;-42
2021/06/14 01:41:57;;;;;;;15.32;6.63;;;;;;;-145.50;100.00;65435.88;4920658;29;20058;-42
2021/06/14 01:44:25;;;;;;;16.02;6.35;;;;;;;-145.50;100.00;65435.88;4917955;29;20064;-42
2021/06/14 01:46:56;;;;;;;14.93;6.70;;;;;;;-145.50;100.00;65435.88;4920443;29;20138;-41
2021/06/14 01:49:24;;;;;;;14.48;6.05;;;;;;;-145.50;100.00;65435.88;4911577;29;20114;-41
2021/06/14 01:51:50;;;;;;;15.05;6.25;;;;;;;-145.50;100.00;65435.88;4927469;29;20062;-42
2021/06/14 01:54:17;;;;;;;15.73;7.03;;;;;;;-145.50;100.00;65435.88;4921913;29;20139;-42
2021/06/14 01:56:46;;;;;;;23.60;8.90;;;;;;;-145.50;100.00;65435.88;4924495;29;20111;-42
2021/06/14 01:59:18;;;;;;;19.13;8.90;;;;;;;-145.50;100.00;65435.88;4913562;29;20143;-41
2021/06/14 02:01:47;;;;;;;15.18;8.15;;;;;;;-145.50;100.00;65435.88;4920559;29;20082;-41
2021/06/14 02:04:14;;;;;;;13.50;7.18;;;;;;;-145.50;100.00;65435.88;4918851;29;20059;-41
2021/06/14 02:06:44;;;;;;;20.58;7.53;;;;;;;-145.50;100.00;65435.88;4912954;29;20144;-42
2021/06/14 02:09:13;;;;;;;17.17;8.00;;;;;;;-145.50;100.00;65435.88;4921349;29;20583;-41
2021/06/14 02:11:45;;;;;;;14.02;6.93;;;;;;;-145.50;100.00;65435.88;4920547;29;20087;-41
2021/06/14 02:14:14;;;;;;;14.20;7.55;;;;;;;-145.50;100.00;65435.88;4921755;29;20166;-42
2021/06/14 02:16:42;;;;;;;16.05;7.35;;;;;;;-145.50;100.00;65435.88;4912907;29;20568;-42
2021/06/14 02:19:09;;;;;;;;;;;;;;;-145.50;100.00;65435.88;4920343;29;20159;-41
2021/06/14 02:21:36;;;;;;;13.88;6.63;;;;;;;-145.50;100.00;65435.88;4916826;29;19974;-42
2021/06/14 02:24:03;;;;;;;15.20;7.25;;;;;;;-145.50;100.00;65435.88;4927127;29;20508;-44
2021/06/14 02:26:29;;;;;;;12.60;6.82;;;;;;;-145.50;100.00;65435.88;4924508;29;20162;-41
2021/06/14 02:28:56;;;;;;;16.95;6.20;;;;;;;-145.50;100.00;65435.88;4914634;29;20158;-41
2021/06/14 02:31:22;;;;;;;16.85;7.28;;;;;;;-145.50;100.00;65435.88;4925484;29;20085;-41
2021/06/14 02:33:49;;;;;;;16.15;7.75;;;;;;;-145.50;100.00;65435.88;4919354;29;20087;-41
2021/06/14 02:36:17;;;;;;;14.52;7.20;;;;;;;-145.50;100.00;65435.88;4928203;29;20330;-43
2021/06/14 02:38:45;;;;;;;;;;;;;;;-145.50;100.00;65435.88;4919519;28;20052;-41
2021/06/14 02:41:12;;;;;;;11.98;6.95;;;;;;;-145.50;100.00;65435.88;4923186;29;20522;-41
2021/06/14 02:43:40;;;;;;;17.40;7.93;;;;;;;-145.50;100.00;65435.88;4916209;29;20114;-40
2021/06/14 02:46:10;;;;;;;14.02;7.85;;;;;;;-145.50;100.00;65435.88;4906896;29;20879;-41
2021/06/14 02:48:41;;;;;;;18.20;8.73;;;;;;;-145.50;100.00;65435.88;4920655;29;20099;-42
2021/06/14 02:51:08;;;;;;;16.70;8.30;;;;;;;-145.50;100.00;65435.88;4920869;29;20091;-43
2021/06/14 02:53:36;;;;;;;16.48;8.60;;;;;;;-145.50;100.00;65435.88;4909216;29;20457;-41
2021/06/14 02:56:07;;;;;;;17.52;8.15;;;;;;;-145.50;100.00;65435.88;4910089;29;20154;-41
2021/06/14 02:58:37;;;;;;;18.50;8.35;;;;;;;-145.50;100.00;65435.88;4913597;29;20543;-41
2021/06/14 03:01:05;;;;;;;19.15;8.82;;;;;;;-145.50;100.00;65435.88;4901681;29;20075;-42
2021/06/14 03:03:32;;;;;;;17.50;8.70;;;;;;;-145.50;100.00;65435.88;4914501;29;20094;-41
2021/06/14 03:05:59;;;;;;;17.90;8.48;;;;;;;-145.50;100.00;65435.88;4927559;29;20110;-42
2021/06/14 03:08:26;;;;;;;16.27;8.73;;;;;;;-145.50;100.00;65435.88;4918297;29;20111;-41
2021/06/14 03:10:54;;;;;;;19.58;8.88;;;;;;;-145.50;100.00;65435.88;4910014;29;20813;-41
2021/06/14 03:13:21;;;;;;;17.33;8.40;;;;;;;-145.50;100.00;65435.88;4904337;29;20154;-41
2021/06/14 03:15:48;;;;;;;15.35;9.43;;;;;;;-145.50;100.00;65435.88;4931964;29;20078;-41
2021/06/14 03:18:17;;;;;;;18.42;8.75;;;;;;;-145.50;100.00;65435.88;4924605;29;20571;-41
2021/06/14 03:20:45;;;;;;;19.08;8.75;;;;;;;-145.50;100.00;65435.88;4925814;29;20051;-42
2021/06/14 03:23:15;;;;;;;17.88;8.98;;;;;;;-145.50;100.00;65435.88;4902852;29;20088;-40
2021/06/14 03:25:42;;;;;;;17.38;8.50;;;;;;;-145.50;100.00;65435.88;4902546;29;20202;-41
2021/06/14 03:28:08;;;;;;;18.90;8.55;;;;;;;-145.50;100.00;65435.88;4908863;29;20148;-41
2021/06/14 03:30:39;;;;;;;18.65;7.88;;;;;;;-145.50;100.00;65435.88;4919937;29;20123;-41
2021/06/14 03:33:07;;;;;;;20.05;9.43;;;;;;;-145.50;100.00;65435.88;4915641;29;20138;-42
2021/06/14 03:35:35;;;;;;;18.42;9.55;;;;;;;-145.50;100.00;65435.88;4918176;29;20097;-41
2021/06/14 03:38:04;;;;;;;15.98;8.98;;;;;;;-145.50;100.00;65435.88;4921657;29;20131;-41
2021/06/14 03:40:30;;;;;;;;;;;;;;;-145.50;100.00;65435.88;4919694;29;20150;-40
2021/06/14 03:43:00;;;;;;;18.77;9.02;;;;;;;-145.50;100.00;65435.88;4917973;29;20033;-41
2021/06/14 03:45:27;;;;;;;15.98;8.93;;;;;;;-145.50;100.00;65435.88;4916930;29;20115;-41
2021/06/14 03:47:55;;;;;;;17.40;8.35;;;;;;;-145.50;100.00;65435.88;4926700;29;20175;-41
2021/06/14 03:50:22;;;;;;;17.50;8.18;;;;;;;-145.50;100.00;65435.88;4910029;29;20105;-42
2021/06/14 03:52:49;;;;;;;19.20;8.55;;;;;;;-145.50;100.00;65435.88;4903014;29;20134;-41
2021/06/14 03:55:15;;;;;;;15.80;9.55;;;;;;;-145.50;100.00;65435.88;4915060;29;20155;-41
2021/06/14 03:57:42;;;;;;;16.73;8.75;;;;;;;-145.50;100.00;65435.88;4917574;29;20086;-40
2021/06/14 04:00:11;;;;;;;16.52;8.52;;;;;;;-145.50;100.00;65435.88;4900509;29;20593;-42
2021/06/14 04:02:38;;;;;;;18.70;10.07;;;;;;;-145.50;100.00;65435.88;4903452;29;20167;-41
2021/06/14 04:05:06;;;;;;;20.13;9.77;;;;;;;-145.50;100.00;65435.88;4922418;29;20119;-41
2021/06/14 04:07:33;;;;;;;16.48;8.80;;;;;;;-145.50;100.00;65435.88;4919353;29;20154;-45
2021/06/14 04:10:00;;;;;;;17.27;9.45;;;;;;;-145.50;100.00;65435.88;4917033;29;20226;-41
2021/06/14 04:12:29;;;;;;;22.63;10.10;;;;;;;-145.50;100.00;65435.88;4905830;29;20819;-41
2021/06/14 04:14:56;;;;;;;15.75;8.52;;;;;;;-145.50;100.00;65435.88;4915618;29;20075;-41
2021/06/14 04:17:23;;;;;;;17.70;8.93;;;;;;;-145.50;100.00;65435.88;4923278;28;20139;-40
2021/06/14 04:19:53;;;;;;;16.95;9.65;;;;;;;-145.50;100.00;65435.88;4906668;29;20056;-41
2021/06/14 04:22:19;;;;;;;17.30;9.43;;;;;;;-145.50;100.00;65435.88;4916588;29;20146;-41
2021/06/14 04:24:45;;;;;;;15.85;9.82;;;;;;;-145.50;100.00;65435.88;4907156;29;20143;-43
2021/06/14 04:27:12;;;;;;;20.30;9.73;;;;;;;-145.50;100.00;65435.88;4910139;29;20075;-41
2021/06/14 04:29:39;;;;;;;19.52;9.98;;;;;;;-145.50;100.00;65435.88;4908262;29;20084;-40
2021/06/14 04:32:05;;;;;;;21.63;8.88;;;;;;;-145.50;100.00;65435.88;4900845;29;20147;-41
2021/06/14 04:34:32;;;;;;;15.02;9.38;;;;;;;-145.50;100.00;65435.88;4914813;29;20415;-41
2021/06/14 04:36:59;;;;;;;17.27;9.45;;;;;;;-145.50;100.00;65435.88;4917813;29;20060;-44
2021/06/14 04:39:25;;;;;;;15.90;8.45;;;;;;;-145.50;100.00;65435.88;4925764;29;20263;-40
2021/06/14 04:41:52;;;;;;;19.85;9.75;;;;;;;-145.50;100.00;65435.88;4918145;29;20087;-42
2021/06/14 04:44:18;;;;;;;19.73;9.90;;;;;;;-145.50;100.00;65435.88;4913801;29;20146;-41
2021/06/14 04:46:45;;;;;;;20.63;10.30;;;;;;;-145.50;100.00;65435.88;4920123;29;20476;-40
2021/06/14 04:49:11;;;;;;;17.85;9.88;;;;;;;-145.50;100.00;65435.88;4910209;29;20142;-42
2021/06/14 04:51:38;;;;;;;23.75;10.80;;;;;;;-145.50;100.00;65435.88;4917267;29;20047;-41
2021/06/14 04:54:04;;;;;;;18.75;10.77;;;;;;;-145.50;100.00;65435.88;4908508;29;20233;-41
2021/06/14 04:56:31;;;;;;;23.70;10.50;;;;;;;-145.50;100.00;65435.88;4921076;29;20138;-41
2021/06/14 04:58:57;;;;;;;23.13;11.02;;;;;;;-145.50;100.00;65435.88;4918933;29;20087;-41
2021/06/14 05:01:24;;;;;;;21.58;11.05;;;;;;;-145.50;100.00;65435.88;4912850;29;20056;-41
2021/06/14 05:03:51;;;;;;;26.60;12.90;;;;;;;-145.50;100.00;65435.88;4906762;29;20084;-41
2021/06/14 05:06:17;;;;;;;21.50;13.43;;;;;;;-145.50;100.00;65435.88;4921210;29;20075;-41
2021/06/14 05:08:43;;;;;;;21.00;12.20;;;;;;;-145.50;100.00;65435.88;4916255;29;20094;-40
2021/06/14 05:11:10;;;;;;;26.20;11.95;;;;;;;-145.50;100.00;65435.88;4911176;29;20138;-41
2021/06/14 05:13:36;;;;;;;24.92;11.95;;;;;;;-145.50;100.00;65435.88;4907520;29;20087;-41
2021/06/14 05:16:03;;;;;;;24.90;13.18;;;;;;;-145.50;100.00;65435.88;4897121;29;20087;-41
2021/06/14 05:18:30;;;;;;;22.75;11.88;;;;;;;-145.50;100.00;65435.88;4911530;29;20060;-42
2021/06/14 05:20:56;;;;;;;23.13;11.80;;;;;;;-145.50;100.00;65435.88;4909375;29;20487;-41
2021/06/14 05:23:23;;;;;;;24.15;11.60;;;;;;;-145.50;100.00;65435.88;4923920;29;20151;-42
2021/06/14 05:25:49;;;;;;;23.95;12.50;;;;;;;-145.50;100.00;65435.88;4916463;29;20552;-41
2021/06/14 05:28:16;;;;;;;28.20;12.68;;;;;;;-145.50;100.00;65435.88;4915709;29;20102;-42
2021/06/14 05:30:42;;;;;;;26.90;13.15;;;;;;;-145.50;100.00;65435.88;4908883;29;20058;-44
2021/06/14 05:33:09;;;;;;;26.70;12.27;;;;;;;-145.50;100.00;65435.88;4905629;29;20143;-42
2021/06/14 05:35:36;;;;;;;22.75;10.18;;;;;;;-145.50;100.00;65435.88;4911682;29;20114;-43
2021/06/14 05:38:02;;;;;;;20.10;8.95;;;;;;;-145.50;100.00;65435.88;4909523;29;20162;-42
2021/06/14 05:40:30;;;;;;;19.90;9.05;;;;;;;-145.50;100.00;65435.88;4915523;29;20055;-42
2021/06/14 05:42:56;;;;;;;15.00;8.07;;;;;;;-145.50;100.00;65435.88;4924201;29;20139;-44
2021/06/14 05:45:23;;;;;;;16.75;8.50;;;;;;;-145.50;100.00;65435.88;4915646;29;20052;-42
2021/06/14 05:47:49;;;;;;;17.20;7.60;;;;;;;-145.50;100.00;65435.88;4922506;29;20052;-42
2021/06/14 05:50:16;;;;;;;18.10;8.35;;;;;;;-145.50;100.00;65435.88;4920325;29;20167;-42
2021/06/14 05:52:43;;;;;;;21.48;8.05;;;;;;;-145.50;100.00;65435.88;4910330;29;20079;-42
2021/06/14 05:55:10;;;;;;;15.15;7.63;;;;;;;-145.50;100.00;65435.88;4906006;29;20095;-43
2021/06/14 05:57:37;;;;;;;23.52;13.27;;;;;;;-145.50;100.00;65435.88;4916609;29;20191;-42
2021/06/14 06:00:09;;;;;;;17.00;7.88;;;;;;;-145.50;100.00;65435.88;4913553;29;20138;-42
2021/06/14 06:02:36;;;;;;;17.63;7.93;;;;;;;-145.50;100.00;65435.88;4909750;29;20163;-42
2021/06/14 06:05:03;;;;;;;18.30;7.65;;;;;;;-145.50;100.00;65435.88;4919429;29;20603;-43
2021/06/14 06:07:30;;;;;;;19.17;8.65;;;;;;;-145.50;100.00;65435.88;4916085;29;20827;-40
2021/06/14 06:09:56;;;;;;;15.15;7.65;;;;;;;-145.50;100.00;65435.88;4911521;29;20087;-41
2021/06/14 06:12:23;;;;;;;16.63;7.15;;;;;;;-145.50;100.00;65435.88;4912858;29;20059;-42
2021/06/14 06:14:50;;;;;;;15.75;7.40;;;;;;;-145.50;100.00;65435.88;4911812;29;20071;-41
2021/06/14 06:17:16;;;;;;;15.88;7.43;;;;;;;-145.50;100.00;65435.88;4906013;29;20115;-42
2021/06/14 06:19:43;;;;;;;16.83;7.85;;;;;;;-145.50;100.00;65435.88;4877737;29;20142;-41
2021/06/14 06:22:09;;;;;;;19.80;8.10;;;;;;;-145.50;100.00;65435.88;4913550;29;20424;-40
2021/06/14 06:24:36;;;;;;;17.67;8.25;;;;;;;-145.50;100.00;65435.88;4895479;29;20143;-41
2021/06/14 06:27:03;;;;;;;20.30;8.20;;;;;;;-145.50;100.00;65435.88;4928183;29;20083;-41
2021/06/14 06:29:30;;;;;;;19.85;7.68;;;;;;;-145.50;100.00;65435.88;4914842;29;20146;-41
2021/06/14 06:31:57;;;;;;;16.02;7.85;;;;;;;-145.50;100.00;65435.88;4926527;29;20090;-42
2021/06/14 06:34:23;;;;;;;10.98;6.50;;;;;;;-145.50;100.00;65435.88;4894370;29;20158;-41
2021/06/14 06:36:50;;;;;;;16.05;6.57;;;;;;;-145.50;100.00;65435.88;4916331;29;20087;-41
2021/06/14 06:39:16;;;;;;;17.70;7.65;;;;;;;-145.50;100.00;65435.88;4916246;29;21357;-42
2021/06/14 06:41:43;;;;;;;14.65;6.22;;;;;;;-145.50;100.00;65435.88;4927420;29;20162;-41
2021/06/14 06:44:10;;;;;;;17.23;6.60;;;;;;;-145.50;100.00;65435.88;4914245;29;20244;-42
2021/06/14 06:46:38;;;;;;;12.00;6.30;;;;;;;-145.50;100.00;65435.88;4904150;29;20222;-41
2021/06/14 06:49:04;;;;;;;15.70;6.37;;;;;;;-145.50;100.00;65435.88;4908078;29;20425;-42
2021/06/14 06:51:31;;;;;;;15.88;6.05;;;;;;;-145.50;100.00;65435.88;4906770;29;20083;-40
2021/06/14 06:54:13;;;;;;;16.35;7.05;;;;;;;-145.50;100.00;65435.88;4922516;29;20591;-41
2021/06/14 06:56:46;;;;;;;15.23;6.60;;;;;;;-145.50;100.00;65435.88;4919020;29;20059;-42
2021/06/14 06:59:13;;;;;;;19.35;6.65;;;;;;;-145.50;100.00;65435.88;4913502;29;20075;-41
2021/06/14 07:01:39;;;;;;;15.32;6.88;;;;;;;-145.50;100.00;65435.88;4903727;29;20075;-43
2021/06/14 07:04:07;;;;;;;16.38;6.65;;;;;;;-145.50;100.00;65435.88;4894206;29;20705;-44
2021/06/14 07:06:34;;;;;;;17.10;6.15;;;;;;;-145.50;100.00;65435.88;4924696;29;20521;-44
2021/06/14 07:09:01;;;;;;;15.55;6.88;;;;;;;-145.50;100.00;65435.88;4918500;29;20052;-42
2021/06/14 07:11:28;;;;;;;14.07;6.28;;;;;;;-145.50;100.00;65435.88;4924796;29;20709;-43
2021/06/14 07:13:55;;;;;;;12.43;5.95;;;;;;;-145.50;100.00;65435.88;4906669;29;20071;-42
2021/06/14 07:16:23;;;;;;;15.43;6.20;;;;;;;-145.50;100.00;65435.88;4914766;29;20048;-43
2021/06/14 07:18:50;;;;;;;14.27;5.82;;;;;;;-145.50;100.00;65435.88;4868927;29;20087;-42
2021/06/14 07:21:17;;;;;;;10.98;5.90;;;;;;;-145.50;100.00;65435.88;4919471;29;20071;-42
2021/06/14 07:23:44;;;;;;;14.88;6.32;;;;;;;-145.50;100.00;65435.88;4907356;29;20170;-42
2021/06/14 07:26:11;;;;;;;14.40;6.38;;;;;;;-145.50;100.00;65435.88;4912482;29;20088;-43
2021/06/14 07:28:39;;;;;;;13.98;5.88;;;;;;;-145.50;100.00;65435.88;4919059;29;20066;-42
2021/06/14 07:31:07;;;;;;;17.65;6.30;;;;;;;-145.50;100.00;65435.88;4882593;29;20143;-42
2021/06/14 07:33:35;;;;;;;17.38;6.40;;;;;;;-145.50;100.00;65435.88;4902945;29;20067;-47
2021/06/14 07:36:06;;;;;;;19.75;7.00;;;;;;;-145.50;100.00;65435.88;4903289;28;20055;-44
2021/06/14 07:38:32;;;;;;;19.23;6.15;;;;;;;-145.50;100.00;65435.88;4910718;29;20131;-46
2021/06/14 07:40:59;;;;;;;18.45;6.63;;;;;;;-145.50;100.00;65435.88;4901796;29;20064;-44
2021/06/14 07:43:26;;;;;;;15.93;6.45;;;;;;;-145.50;100.00;65435.88;4919115;29;20507;-43
2021/06/14 07:45:53;;;;;;;13.88;6.28;;;;;;;-145.50;100.00;65435.88;4907716;29;20159;-43
2021/06/14 07:48:22;;;;;;;15.70;6.45;;;;;;;-145.50;100.00;65435.88;4907830;29;20520;-42
2021/06/14 07:50:50;;;;;;;12.60;5.93;;;;;;;-145.50;100.00;65435.88;4924554;29;20130;-45
2021/06/14 07:53:17;;;;;;;15.02;6.15;;;;;;;-145.50;100.00;65435.88;4898697;29;20274;-45
2021/06/14 07:55:44;;;;;;;15.32;7.18;;;;;;;-145.50;100.00;65435.88;4913144;29;20134;-42
2021/06/14 07:58:11;;;;;;;15.45;6.90;;;;;;;-145.50;100.00;65435.88;4899329;29;20170;-42
2021/06/14 08:00:40;;;;;;;15.38;6.68;;;;;;;-145.50;100.00;65435.88;4917107;29;20066;-42
2021/06/14 08:03:08;;;;;;;13.85;6.82;;;;;;;-145.50;100.00;65435.88;4905459;29;20146;-43
2021/06/14 08:05:34;;;;;;;12.60;5.43;;;;;;;-145.50;100.00;65435.88;4923014;29;20523;-42
2021/06/14 08:08:12;;;;;;;14.13;6.88;;;;;;;-145.50;100.00;65435.88;4918139;29;20051;-41
2021/06/14 08:10:39;;;;;;;15.97;6.30;;;;;;;-145.50;100.00;65435.88;4907729;29;20146;-44
2021/06/14 08:13:06;;;;;;;19.00;7.03;;;;;;;-145.50;100.00;65435.88;4910615;29;21080;-40
2021/06/14 08:15:34;;;;;;;15.13;6.22;;;;;;;-145.50;100.00;65435.88;4912659;29;20056;-41
2021/06/14 08:20:41;;;;;;;16.15;6.35;;;;;;;-145.50;100.00;65435.88;4911477;29;20333;-41
2021/06/14 08:25:53;;;;;;;15.77;6.00;;;;;;;-145.50;100.00;65435.88;4911532;29;20144;-43
2021/06/14 08:28:20;;;;;;;10.50;5.35;;;;;;;-145.50;100.00;65435.88;4913837;29;20142;-42
2021/06/14 08:30:47;;;;;;;17.90;5.70;;;;;;;-145.50;100.00;65435.88;4917091;29;20139;-41
2021/06/14 08:33:13;;;;;;;15.15;5.88;;;;;;;-145.50;100.00;65435.88;4918601;29;20172;-40
2021/06/14 08:35:40;;;;;;;18.67;5.90;;;;;;;-145.50;100.00;65435.88;4912099;29;20572;-42
2021/06/14 08:38:07;;;;;;;10.45;5.18;;;;;;;-145.50;100.00;65435.88;4915715;29;20488;-41
2021/06/14 08:40:36;;;;;;;11.23;5.60;;;;;;;-145.50;100.00;65435.88;4912769;29;20083;-41
2021/06/14 08:43:05;;;;;;;15.98;5.65;;;;;;;-145.50;100.00;65435.88;4914864;29;20052;-41
2021/06/14 08:45:36;;;;;;;11.85;6.07;;;;;;;-145.50;100.00;65435.88;4923492;29;20056;-42
2021/06/14 08:48:04;;;;;;;14.90;6.10;;;;;;;-145.50;100.00;65435.88;4914167;29;20400;-41
2021/06/14 08:50:31;;;;;;;13.20;5.50;;;;;;;-145.50;100.00;65435.88;4923430;29;20055;-42
2021/06/14 08:52:58;;;;;;;16.67;6.10;;;;;;;-145.50;100.00;65435.88;4918546;29;20881;-42
2021/06/14 08:55:25;;;;;;;12.68;5.72;;;;;;;-145.50;100.00;65435.88;4914097;29;20141;-43
2021/06/14 08:57:52;;;;;;;12.20;5.88;;;;;;;-145.50;100.00;65435.88;4924241;29;20613;-42
2021/06/14 09:00:24;;;;;;;16.15;6.00;;;;;;;-145.50;100.00;65435.88;4908824;29;20052;-42
2021/06/14 09:02:51;;;;;;;13.90;5.95;;;;;;;-145.50;100.00;65435.88;4914480;29;20435;-43
2021/06/14 09:05:20;;;;;;;;;;;;;;;-145.50;100.00;65435.88;4915739;29;20138;-42
2021/06/14 09:07:47;;;;;;;;;;;;;;;-145.50;100.00;65435.88;4916599;29;20215;-45
2021/06/14 09:10:31;;;;;;;16.10;6.35;;;;;;;-145.50;100.00;65435.88;4899392;29;20002;-42
2021/06/14 09:13:18;;;;;;;12.93;5.90;;;;;;;-145.50;100.00;65435.88;4923593;29;20091;-44
2021/06/14 09:15:47;;;;;;;15.85;6.13;;;;;;;-145.50;100.00;65435.88;4910276;29;20163;-43
2021/06/14 09:18:26;;;;;;;14.57;6.00;;;;;;;-145.50;100.00;65435.88;4917791;29;20067;-42
2021/06/14 09:21:00;;;;;;;14.25;5.80;;;;;;;-145.50;100.00;65435.88;4924137;29;20087;-43
2021/06/14 09:23:39;;;;;;;15.07;6.18;;;;;;;-145.50;100.00;65435.88;4914822;29;20575;-42
2021/06/14 09:26:07;;;;;;;17.08;5.85;;;;;;;-145.50;100.00;65435.88;4927596;29;20063;-42
2021/06/14 09:28:34;;;;;;;19.52;6.53;;;;;;;-145.50;100.00;65435.88;4912429;29;20123;-42
2021/06/14 09:31:14;;;;;;;14.57;5.65;;;;;;;-145.50;100.00;65435.88;4917836;29;20143;-44
2021/06/14 09:33:44;;;;;;;13.68;6.55;;;;;;;-145.50;100.00;65435.88;4910882;29;20134;-44
2021/06/14 09:36:11;;;;;;;15.80;6.47;;;;;;;-145.50;100.00;65435.88;4904152;29;20861;-42
2021/06/14 09:38:38;;;;;;;23.38;7.43;;;;;;;-145.50;100.00;65435.88;4905637;29;20526;-42
2021/06/14 09:41:17;;;;;;;14.07;6.40;;;;;;;-145.50;100.00;65435.88;4913468;29;20151;-42
2021/06/14 09:43:48;;;;;;;16.65;7.45;;;;;;;-145.50;100.00;65435.88;4917142;29;20141;-42
2021/06/14 09:46:21;;;;;;;18.52;7.53;;;;;;;-145.50;100.00;65435.88;4921522;29;20060;-45
2021/06/14 09:48:50;;;;;;;20.92;7.90;;;;;;;-145.50;100.00;65435.88;4911385;29;20055;-42
2021/06/14 09:51:17;;;;;;;21.83;9.10;;;;;;;-145.50;100.00;65435.88;4914112;29;20091;-44
2021/06/14 09:53:50;;;;;;;17.30;7.90;;;;;;;-145.50;100.00;65435.88;4918101;29;20073;-42
2021/06/14 09:56:23;;;;;;;27.40;10.02;;;;;;;-145.50;100.00;65435.88;4910120;29;20147;-44
2021/06/14 09:58:52;;;;;;;19.73;9.00;;;;;;;-145.50;100.00;65435.88;4919588;29;20178;-42
2021/06/14 10:01:28;;;;;;;25.10;8.65;;;;;;;-145.50;100.00;65435.88;4904194;29;20087;-43
2021/06/14 10:03:57;;;;;;;21.58;10.45;;;;;;;-145.50;100.00;65435.88;4911994;29;20055;-42
2021/06/14 10:06:33;;;;;;;20.48;10.40;;;;;;;-145.50;100.00;65435.88;4915944;29;20057;-42
2021/06/14 10:09:00;;;;;;;22.30;11.50;;;;;;;-145.50;100.00;65435.88;4925063;29;20063;-42
2021/06/14 10:11:36;;;;;;;22.80;12.52;;;;;;;-145.50;100.00;65435.88;4914677;29;20091;-43
2021/06/14 10:14:07;;;;;;;22.23;12.18;;;;;;;-145.50;100.00;65435.88;4917026;29;20051;-43
2021/06/14 10:16:36;;;;;;;23.02;12.35;;;;;;;-145.50;100.00;65435.88;4920940;29;20058;-44
2021/06/14 10:19:07;;;;;;;22.13;11.15;;;;;;;-145.50;100.00;65435.88;4913394;29;20062;-43
2021/06/14 10:21:37;;;;;;;19.25;10.52;;;;;;;-145.50;100.00;65435.88;4919282;29;20696;-42
2021/06/14 10:24:09;;;;;;;17.17;8.35;;;;;;;-145.50;100.00;65435.88;4909069;29;20149;-42
2021/06/14 10:26:38;;;;;;;23.63;10.32;;;;;;;-145.50;100.00;65435.88;4915562;29;20075;-45
2021/06/14 10:29:07;;;;;;;25.17;11.07;;;;;;;-145.50;100.00;65435.88;4885811;29;20107;-44
2021/06/14 10:31:36;;;;;;;20.02;10.95;;;;;;;-145.50;100.00;65435.88;4907655;29;20060;-44
2021/06/14 10:34:04;;;;;;;23.17;11.07;;;;;;;-145.50;100.00;65435.88;4905430;29;163972;-46
2021/06/14 10:36:31;;;;;;;24.88;11.70;;;;;;;-145.50;100.00;65435.88;4915416;29;20088;-44
2021/06/14 10:39:00;;;;;;;23.95;12.60;;;;;;;-145.50;100.00;65435.88;4925441;29;20069;-43
2021/06/14 10:41:28;;;;;;;24.63;11.25;;;;;;;-145.50;100.00;65435.88;4918285;29;20070;-46
2021/06/14 10:43:55;;;;;;;18.30;10.52;;;;;;;-145.50;100.00;65435.88;4908931;29;20365;-44
2021/06/14 10:46:25;;;;;;;17.17;8.10;;;;;;;-145.50;100.00;65435.88;4906875;29;20135;-44
2021/06/14 10:49:00;;;;;;;20.77;10.63;;;;;;;-145.50;100.00;65435.88;4911194;29;20060;-45
2021/06/14 10:51:27;;;;;;;15.73;10.23;;;;;;;-145.50;100.00;65435.88;4915716;29;20062;-46
2021/06/14 10:54:08;;;;;;;16.85;9.48;;;;;;;-145.50;100.00;65435.88;4918765;29;20114;-45
2021/06/14 10:56:38;;;;;;;19.75;9.57;;;;;;;-145.50;100.00;65435.88;4907494;29;20055;-45
2021/06/14 10:59:10;;;;;;;14.68;8.40;;;;;;;-145.50;100.00;65435.88;4916439;29;20658;-45
2021/06/14 11:01:39;;;;;;;18.15;8.75;;;;;;;-145.50;100.00;65435.88;4909832;29;20060;-46
2021/06/14 11:04:08;;;;;;;19.80;9.55;;;;;;;-145.50;100.00;65435.88;4899401;29;20222;-47
2021/06/14 11:06:37;;;;;;;25.42;10.00;;;;;;;-145.50;100.00;65435.88;4926307;29;20087;-44
2021/06/14 11:09:13;;;;;;;17.60;8.60;;;;;;;-145.50;100.00;65435.88;4906358;29;20138;-45
2021/06/14 11:11:43;;;;;;;14.43;7.72;;;;;;;-145.50;100.00;65435.88;4915593;29;20078;-47
2021/06/14 11:14:11;;;;;;;18.60;7.60;;;;;;;-145.50;100.00;65435.88;4907242;29;20074;-45